sensor_id;sensor_type;location;lat;lon;timestamp;pressure;altitude;pressure_sealevel;temperature;humidity
72548;BME280;60570;50.848;6.776;2023-04-03T00:00:27;101778.09;;;8.02;63.64
72548;BME280;60570;50.848;6.776;2023-04-03T00:01:27;101767.03;;;8.02;63.23
72548;BME280;60570;50.848;6.776;2023-04-03T00:02:29;101777.78;;;8.03;63.51
72548;BME280;60570;50.848;6.776;2023-04-03T00:03:30;101769.78;;;8.02;63.16
72548;BME280;60570;50.848;6.776;2023-04-03T00:04:31;101779.19;;;8.01;63.12
72548;BME280;60570;50.848;6.776;2023-04-03T00:05:33;101778.38;;;8.00;63.08
72548;BME280;60570;50.848;6.776;2023-04-03T00:06:34;101774.78;;;8.00;63.08
72548;BME280;60570;50.848;6.776;2023-04-03T00:07:35;101773.13;;;7.99;63.31
72548;BME280;60570;50.848;6.776;2023-04-03T00:08:37;101774.25;;;7.98;63.15
72548;BME280;60570;50.848;6.776;2023-04-03T00:09:38;101778.94;;;7.97;63.29
72548;BME280;60570;50.848;6.776;2023-04-03T00:10:39;101776.16;;;7.97;63.51
72548;BME280;60570;50.848;6.776;2023-04-03T00:11:41;101776.16;;;7.97;62.99
72548;BME280;60570;50.848;6.776;2023-04-03T00:12:42;101763.47;;;7.96;62.98
72548;BME280;60570;50.848;6.776;2023-04-03T00:13:43;101772.56;;;7.97;63.29
72548;BME280;60570;50.848;6.776;2023-04-03T00:14:46;101767.88;;;7.97;63.34
72548;BME280;60570;50.848;6.776;2023-04-03T00:15:47;101770.94;;;7.96;63.11
72548;BME280;60570;50.848;6.776;2023-04-03T00:16:48;101774.53;;;7.96;63.46
72548;BME280;60570;50.848;6.776;2023-04-03T00:17:49;101773.41;;;7.97;63.07
72548;BME280;60570;50.848;6.776;2023-04-03T00:18:50;101772.88;;;7.95;62.95
72548;BME280;60570;50.848;6.776;2023-04-03T00:19:52;101770.09;;;7.95;63.46
72548;BME280;60570;50.848;6.776;2023-04-03T00:20:52;101772.03;;;7.95;63.12
72548;BME280;60570;50.848;6.776;2023-04-03T00:21:54;101771.50;;;7.93;63.34
72548;BME280;60570;50.848;6.776;2023-04-03T00:22:55;101769.03;;;7.91;63.36
72548;BME280;60570;50.848;6.776;2023-04-03T00:23:56;101772.63;;;7.92;63.26
72548;BME280;60570;50.848;6.776;2023-04-03T00:24:57;101769.03;;;7.91;63.49
72548;BME280;60570;50.848;6.776;2023-04-03T00:25:59;101772.31;;;7.93;63.49
72548;BME280;60570;50.848;6.776;2023-04-03T00:26:59;101772.03;;;7.95;63.13
72548;BME280;60570;50.848;6.776;2023-04-03T00:28:02;101767.34;;;7.95;63.13
72548;BME280;60570;50.848;6.776;2023-04-03T00:29:03;101774.78;;;7.95;63.19
72548;BME280;60570;50.848;6.776;2023-04-03T00:30:08;101770.09;;;7.95;63.09
72548;BME280;60570;50.848;6.776;2023-04-03T00:31:10;101769.00;;;7.96;63.58
72548;BME280;60570;50.848;6.776;2023-04-03T00:32:11;101767.03;;;7.97;63.64
72548;BME280;60570;50.848;6.776;2023-04-03T00:33:12;101766.78;;;7.98;63.52
72548;BME280;60570;50.848;6.776;2023-04-03T00:34:14;101768.72;;;7.98;63.28
72548;BME280;60570;50.848;6.776;2023-04-03T00:35:15;101768.41;;;7.99;63.04
72548;BME280;60570;50.848;6.776;2023-04-03T00:36:17;101773.13;;;7.99;63.46
72548;BME280;60570;50.848;6.776;2023-04-03T00:37:18;101771.19;;;7.99;62.92
72548;BME280;60570;50.848;6.776;2023-04-03T00:38:19;101765.94;;;7.98;63.13
72548;BME280;60570;50.848;6.776;2023-04-03T00:39:20;101767.03;;;7.97;63.52
72548;BME280;60570;50.848;6.776;2023-04-03T00:40:23;101763.72;;;7.95;63.25
72548;BME280;60570;50.848;6.776;2023-04-03T00:41:24;101771.22;;;7.94;63.07
72548;BME280;60570;50.848;6.776;2023-04-03T00:42:27;101763.19;;;7.93;63.45
72548;BME280;60570;50.848;6.776;2023-04-03T00:43:27;101761.56;;;7.92;63.62
72548;BME280;60570;50.848;6.776;2023-04-03T00:45:50;101771.22;;;7.94;63.56
72548;BME280;60570;50.848;6.776;2023-04-03T00:46:52;101767.34;;;7.95;63.46
72548;BME280;60570;50.848;6.776;2023-04-03T00:47:54;101771.78;;;7.96;63.05
72548;BME280;60570;50.848;6.776;2023-04-03T00:48:56;101768.16;;;7.96;63.57
72548;BME280;60570;50.848;6.776;2023-04-03T00:49:58;101763.19;;;7.98;63.36
72548;BME280;60570;50.848;6.776;2023-04-03T00:50:59;101765.41;;;7.96;62.98
72548;BME280;60570;50.848;6.776;2023-04-03T00:52:01;101767.88;;;7.97;63.59
72548;BME280;60570;50.848;6.776;2023-04-03T00:53:04;101769.81;;;7.97;63.55
72548;BME280;60570;50.848;6.776;2023-04-03T00:54:07;101771.47;;;7.98;63.16
72548;BME280;60570;50.848;6.776;2023-04-03T00:55:09;101762.34;;;7.97;63.39
72548;BME280;60570;50.848;6.776;2023-04-03T00:56:13;101771.47;;;7.98;63.53
72548;BME280;60570;50.848;6.776;2023-04-03T00:57:17;101769.00;;;7.96;63.19
72548;BME280;60570;50.848;6.776;2023-04-03T00:58:20;101762.94;;;7.94;63.36
72548;BME280;60570;50.848;6.776;2023-04-03T00:59:24;101769.56;;;7.93;63.43
72548;BME280;60570;50.848;6.776;2023-04-03T01:00:27;101771.50;;;7.93;63.26
72548;BME280;60570;50.848;6.776;2023-04-03T01:01:30;101765.97;;;7.93;63.37
72548;BME280;60570;50.848;6.776;2023-04-03T01:02:32;101759.88;;;7.91;63.10
72548;BME280;60570;50.848;6.776;2023-04-03T01:03:32;101763.47;;;7.91;63.69
72548;BME280;60570;50.848;6.776;2023-04-03T01:04:36;101764.88;;;7.89;63.21
72548;BME280;60570;50.848;6.776;2023-04-03T01:05:38;101758.25;;;7.90;63.22
72548;BME280;60570;50.848;6.776;2023-04-03T01:06:40;101761.84;;;7.90;63.28
72548;BME280;60570;50.848;6.776;2023-04-03T01:07:41;101764.06;;;7.88;63.29
72548;BME280;60570;50.848;6.776;2023-04-03T01:08:44;101757.72;;;7.88;63.41
72548;BME280;60570;50.848;6.776;2023-04-03T01:09:44;101765.16;;;7.87;63.22
72548;BME280;60570;50.848;6.776;2023-04-03T01:10:48;101767.09;;;7.87;63.31
72548;BME280;60570;50.848;6.776;2023-04-03T01:11:49;101761.56;;;7.87;63.29
72548;BME280;60570;50.848;6.776;2023-04-03T01:12:50;101752.47;;;7.86;63.67
72548;BME280;60570;50.848;6.776;2023-04-03T01:13:52;101769.06;;;7.86;63.44
72548;BME280;60570;50.848;6.776;2023-04-03T01:14:55;101757.16;;;7.86;63.17
72548;BME280;60570;50.848;6.776;2023-04-03T01:15:57;101764.34;;;7.87;63.10
72548;BME280;60570;50.848;6.776;2023-04-03T01:16:59;101764.63;;;7.85;63.31
72548;BME280;60570;50.848;6.776;2023-04-03T01:18:00;101757.47;;;7.84;63.17
72548;BME280;60570;50.848;6.776;2023-04-03T01:19:03;101760.53;;;7.83;63.22
72548;BME280;60570;50.848;6.776;2023-04-03T01:20:39;101760.53;;;7.83;63.64
72548;BME280;60570;50.848;6.776;2023-04-03T01:21:56;101761.63;;;7.82;63.83
72548;BME280;60570;50.848;6.776;2023-04-03T01:23:16;101763.53;;;7.81;63.63
72548;BME280;60570;50.848;6.776;2023-04-03T01:24:32;101764.13;;;7.78;63.32
72548;BME280;60570;50.848;6.776;2023-04-03T01:25:35;101765.22;;;7.77;63.72
72548;BME280;60570;50.848;6.776;2023-04-03T01:26:36;101762.47;;;7.77;63.42
72548;BME280;60570;50.848;6.776;2023-04-03T01:27:38;101761.66;;;7.77;63.38
72548;BME280;60570;50.848;6.776;2023-04-03T01:28:39;101760.00;;;7.76;63.36
72548;BME280;60570;50.848;6.776;2023-04-03T01:29:41;101759.16;;;7.75;63.42
72548;BME280;60570;50.848;6.776;2023-04-03T01:30:48;101761.66;;;7.77;63.57
72548;BME280;60570;50.848;6.776;2023-04-03T01:31:55;101760.81;;;7.76;63.46
72548;BME280;60570;50.848;6.776;2023-04-03T01:32:56;101760.81;;;7.76;63.63
72548;BME280;60570;50.848;6.776;2023-04-03T01:33:57;101760.28;;;7.74;63.67
72548;BME280;60570;50.848;6.776;2023-04-03T01:34:58;101763.06;;;7.74;63.18
72548;BME280;60570;50.848;6.776;2023-04-03T01:36:00;101761.91;;;7.75;63.41
72548;BME280;60570;50.848;6.776;2023-04-03T01:37:00;101754.75;;;7.74;63.06
72548;BME280;60570;50.848;6.776;2023-04-03T01:38:02;101763.34;;;7.73;63.44
72548;BME280;60570;50.848;6.776;2023-04-03T01:39:06;101758.91;;;7.72;63.12
72548;BME280;60570;50.848;6.776;2023-04-03T01:40:08;101761.66;;;7.72;63.36
72548;BME280;60570;50.848;6.776;2023-04-03T01:41:09;101755.34;;;7.71;63.15
72548;BME280;60570;50.848;6.776;2023-04-03T01:42:10;101758.38;;;7.70;63.37
72548;BME280;60570;50.848;6.776;2023-04-03T01:43:11;101754.78;;;7.69;63.73
72548;BME280;60570;50.848;6.776;2023-04-03T01:44:13;101759.50;;;7.69;63.27
72548;BME280;60570;50.848;6.776;2023-04-03T01:45:14;101765.84;;;7.69;63.71
72548;BME280;60570;50.848;6.776;2023-04-03T01:46:16;101760.59;;;7.68;63.38
72548;BME280;60570;50.848;6.776;2023-04-03T01:47:18;101752.28;;;7.68;63.14
72548;BME280;60570;50.848;6.776;2023-04-03T01:48:20;101762.81;;;7.66;63.76
72548;BME280;60570;50.848;6.776;2023-04-03T01:49:21;101754.81;;;7.64;63.56
72548;BME280;60570;50.848;6.776;2023-04-03T01:50:22;101758.41;;;7.65;63.33
72548;BME280;60570;50.848;6.776;2023-04-03T01:51:23;101762.00;;;7.65;63.56
72548;BME280;60570;50.848;6.776;2023-04-03T01:52:25;101753.97;;;7.64;63.36
72548;BME280;60570;50.848;6.776;2023-04-03T01:53:26;101754.81;;;7.64;63.80
72548;BME280;60570;50.848;6.776;2023-04-03T01:54:27;101755.94;;;7.63;63.37
72548;BME280;60570;50.848;6.776;2023-04-03T01:55:28;101753.97;;;7.64;63.57
72548;BME280;60570;50.848;6.776;2023-04-03T01:56:30;101761.47;;;7.63;63.75
72548;BME280;60570;50.848;6.776;2023-04-03T01:57:31;101761.19;;;7.65;63.34
72548;BME280;60570;50.848;6.776;2023-04-03T01:58:32;101764.22;;;7.63;63.64
72548;BME280;60570;50.848;6.776;2023-04-03T01:59:33;101768.63;;;7.64;63.51
72548;BME280;60570;50.848;6.776;2023-04-03T02:00:35;101762.81;;;7.66;63.67
72548;BME280;60570;50.848;6.776;2023-04-03T02:01:36;101767.53;;;7.65;63.54
72548;BME280;60570;50.848;6.776;2023-04-03T02:02:39;101771.09;;;7.66;63.69
72548;BME280;60570;50.848;6.776;2023-04-03T02:03:40;101769.47;;;7.65;63.62
72548;BME280;60570;50.848;6.776;2023-04-03T02:04:41;101765.03;;;7.64;63.35
72548;BME280;60570;50.848;6.776;2023-04-03T02:05:42;101774.47;;;7.63;63.41
72548;BME280;60570;50.848;6.776;2023-04-03T02:06:44;101763.69;;;7.61;63.28
72548;BME280;60570;50.848;6.776;2023-04-03T02:07:44;101768.66;;;7.59;63.61
72548;BME280;60570;50.848;6.776;2023-04-03T02:08:46;101767.00;;;7.58;63.43
72548;BME280;60570;50.848;6.776;2023-04-03T02:09:47;101769.47;;;7.60;63.12
72548;BME280;60570;50.848;6.776;2023-04-03T02:10:49;101767.56;;;7.60;63.63
72548;BME280;60570;50.848;6.776;2023-04-03T02:11:50;101762.84;;;7.61;63.76
72548;BME280;60570;50.848;6.776;2023-04-03T02:12:52;101758.16;;;7.61;63.71
72548;BME280;60570;50.848;6.776;2023-04-03T02:13:52;101766.44;;;7.61;62.95
72548;BME280;60570;50.848;6.776;2023-04-03T02:14:54;101765.91;;;7.59;63.55
72548;BME280;60570;50.848;6.776;2023-04-03T02:15:55;101765.91;;;7.59;63.27
72548;BME280;60570;50.848;6.776;2023-04-03T02:16:56;101763.16;;;7.59;63.56
72548;BME280;60570;50.848;6.776;2023-04-03T02:18:00;101765.63;;;7.61;63.49
72548;BME280;60570;50.848;6.776;2023-04-03T02:19:02;101767.84;;;7.59;63.45
72548;BME280;60570;50.848;6.776;2023-04-03T02:20:04;101760.66;;;7.58;63.35
72548;BME280;60570;50.848;6.776;2023-04-03T02:21:06;101770.34;;;7.55;63.38
72548;BME280;60570;50.848;6.776;2023-04-03T02:22:06;101771.19;;;7.56;63.38
72548;BME280;60570;50.848;6.776;2023-04-03T02:23:08;101772.00;;;7.56;63.14
72548;BME280;60570;50.848;6.776;2023-04-03T02:24:09;101771.19;;;7.56;63.47
72548;BME280;60570;50.848;6.776;2023-04-03T02:25:11;101768.69;;;7.54;62.86
72548;BME280;60570;50.848;6.776;2023-04-03T02:26:14;101766.22;;;7.53;63.02
72548;BME280;60570;50.848;6.776;2023-04-03T02:27:15;101772.03;;;7.51;63.42
72548;BME280;60570;50.848;6.776;2023-04-03T02:28:16;101781.72;;;7.49;63.59
72548;BME280;60570;50.848;6.776;2023-04-03T02:29:18;101773.41;;;7.49;63.26
72548;BME280;60570;50.848;6.776;2023-04-03T02:30:19;101770.94;;;7.47;63.12
72548;BME280;60570;50.848;6.776;2023-04-03T02:31:20;101765.72;;;7.46;63.11
72548;BME280;60570;50.848;6.776;2023-04-03T02:32:21;101767.63;;;7.45;63.17
72548;BME280;60570;50.848;6.776;2023-04-03T02:33:24;101772.31;;;7.45;63.20
72548;BME280;60570;50.848;6.776;2023-04-03T02:34:25;101773.16;;;7.45;63.51
72548;BME280;60570;50.848;6.776;2023-04-03T02:35:27;101765.72;;;7.46;63.27
72548;BME280;60570;50.848;6.776;2023-04-03T02:36:27;101773.16;;;7.45;63.26
72548;BME280;60570;50.848;6.776;2023-04-03T02:37:29;101782.56;;;7.44;63.16
72548;BME280;60570;50.848;6.776;2023-04-03T02:38:30;101774.00;;;7.46;63.41
72548;BME280;60570;50.848;6.776;2023-04-03T02:39:32;101780.31;;;7.46;63.44
72548;BME280;60570;50.848;6.776;2023-04-03T02:40:32;101764.56;;;7.47;63.52
72548;BME280;60570;50.848;6.776;2023-04-03T02:41:34;101767.63;;;7.45;63.55
72548;BME280;60570;50.848;6.776;2023-04-03T02:42:35;101773.16;;;7.45;63.55
72548;BME280;60570;50.848;6.776;2023-04-03T02:43:38;101776.22;;;7.44;63.22
72548;BME280;60570;50.848;6.776;2023-04-03T02:44:38;101764.88;;;7.45;63.25
72548;BME280;60570;50.848;6.776;2023-04-03T02:45:40;101775.09;;;7.45;63.45
72548;BME280;60570;50.848;6.776;2023-04-03T02:46:41;101774.25;;;7.44;63.48
72548;BME280;60570;50.848;6.776;2023-04-03T02:47:42;101772.63;;;7.43;63.53
72548;BME280;60570;50.848;6.776;2023-04-03T02:48:44;101774.53;;;7.43;63.53
72548;BME280;60570;50.848;6.776;2023-04-03T02:49:46;101772.91;;;7.42;63.01
72548;BME280;60570;50.848;6.776;2023-04-03T02:50:47;101779.53;;;7.41;63.15
72548;BME280;60570;50.848;6.776;2023-04-03T02:51:48;101775.13;;;7.40;62.85
72548;BME280;60570;50.848;6.776;2023-04-03T02:52:49;101777.06;;;7.39;63.13
72548;BME280;60570;50.848;6.776;2023-04-03T02:53:51;101784.50;;;7.39;63.24
72548;BME280;60570;50.848;6.776;2023-04-03T02:54:51;101778.19;;;7.38;62.91
72548;BME280;60570;50.848;6.776;2023-04-03T02:55:53;101780.94;;;7.38;63.02
72548;BME280;60570;50.848;6.776;2023-04-03T02:56:54;101779.28;;;7.37;63.17
72548;BME280;60570;50.848;6.776;2023-04-03T02:57:55;101772.91;;;7.37;63.59
72548;BME280;60570;50.848;6.776;2023-04-03T02:58:56;101778.72;;;7.35;63.29
72548;BME280;60570;50.848;6.776;2023-04-03T02:59:58;101769.91;;;7.33;63.38
72548;BME280;60570;50.848;6.776;2023-04-03T03:00:58;101780.94;;;7.33;63.60
72548;BME280;60570;50.848;6.776;2023-04-03T03:02:00;101782.88;;;7.33;63.26
72548;BME280;60570;50.848;6.776;2023-04-03T03:03:01;101769.06;;;7.33;63.26
72548;BME280;60570;50.848;6.776;2023-04-03T03:04:04;101774.88;;;7.31;62.96
72548;BME280;60570;50.848;6.776;2023-04-03T03:05:05;101777.63;;;7.31;63.30
72548;BME280;60570;50.848;6.776;2023-04-03T03:06:09;101771.28;;;7.31;63.23
72548;BME280;60570;50.848;6.776;2023-04-03T03:07:10;101774.03;;;7.31;63.13
72548;BME280;60570;50.848;6.776;2023-04-03T03:08:11;101777.63;;;7.31;63.27
72548;BME280;60570;50.848;6.776;2023-04-03T03:09:12;101774.03;;;7.31;63.23
72548;BME280;60570;50.848;6.776;2023-04-03T03:10:14;101776.81;;;7.31;63.25
72548;BME280;60570;50.848;6.776;2023-04-03T03:11:15;101778.75;;;7.30;63.45
72548;BME280;60570;50.848;6.776;2023-04-03T03:12:17;101781.25;;;7.32;62.88
72548;BME280;60570;50.848;6.776;2023-04-03T03:13:21;101779.84;;;7.29;63.30
72548;BME280;60570;50.848;6.776;2023-04-03T03:14:23;101777.38;;;7.28;62.82
72548;BME280;60570;50.848;6.776;2023-04-03T03:15:24;101780.44;;;7.26;62.77
72548;BME280;60570;50.848;6.776;2023-04-03T03:16:25;101781.53;;;7.25;62.76
72548;BME280;60570;50.848;6.776;2023-04-03T03:17:26;101777.97;;;7.24;63.36
72548;BME280;60570;50.848;6.776;2023-04-03T03:18:28;101777.41;;;7.22;63.07
72548;BME280;60570;50.848;6.776;2023-04-03T03:19:32;101784.03;;;7.21;63.03
72548;BME280;60570;50.848;6.776;2023-04-03T03:20:33;101774.91;;;7.21;62.86
72548;BME280;60570;50.848;6.776;2023-04-03T03:21:34;101780.44;;;7.21;63.06
72548;BME280;60570;50.848;6.776;2023-04-03T03:22:36;101777.97;;;7.19;62.81
72548;BME280;60570;50.848;6.776;2023-04-03T03:23:37;101779.09;;;7.18;62.78
72548;BME280;60570;50.848;6.776;2023-04-03T03:24:38;101784.63;;;7.18;63.10
72548;BME280;60570;50.848;6.776;2023-04-03T03:25:40;101782.09;;;7.17;62.74
72548;BME280;60570;50.848;6.776;2023-04-03T03:26:42;101780.47;;;7.16;62.78
72548;BME280;60570;50.848;6.776;2023-04-03T03:27:43;101773.81;;;7.17;63.23
72548;BME280;60570;50.848;6.776;2023-04-03T03:28:46;101779.34;;;7.17;62.98
72548;BME280;60570;50.848;6.776;2023-04-03T03:29:46;101776.06;;;7.15;63.15
72548;BME280;60570;50.848;6.776;2023-04-03T03:30:48;101774.69;;;7.12;63.14
72548;BME280;60570;50.848;6.776;2023-04-03T03:31:49;101779.38;;;7.12;63.04
72548;BME280;60570;50.848;6.776;2023-04-03T03:32:50;101777.75;;;7.11;62.79
72548;BME280;60570;50.848;6.776;2023-04-03T03:33:51;101771.38;;;7.10;63.11
72548;BME280;60570;50.848;6.776;2023-04-03T03:34:54;101773.31;;;7.10;62.96
72548;BME280;60570;50.848;6.776;2023-04-03T03:35:55;101775.22;;;7.09;63.38
72548;BME280;60570;50.848;6.776;2023-04-03T03:36:57;101771.66;;;7.09;62.86
72548;BME280;60570;50.848;6.776;2023-04-03T03:37:59;101779.94;;;7.09;63.24
72548;BME280;60570;50.848;6.776;2023-04-03T03:38:59;101775.50;;;7.08;62.72
72548;BME280;60570;50.848;6.776;2023-04-03T03:40:01;101770.28;;;7.06;62.79
72548;BME280;60570;50.848;6.776;2023-04-03T03:41:02;101775.81;;;7.06;63.08
72548;BME280;60570;50.848;6.776;2023-04-03T03:42:04;101772.50;;;7.04;63.15
72548;BME280;60570;50.848;6.776;2023-04-03T03:43:05;101774.41;;;7.04;62.82
72548;BME280;60570;50.848;6.776;2023-04-03T03:44:07;101771.66;;;7.04;63.05
72548;BME280;60570;50.848;6.776;2023-04-03T03:45:09;101777.19;;;7.04;62.99
72548;BME280;60570;50.848;6.776;2023-04-03T03:46:10;101779.13;;;7.03;63.11
72548;BME280;60570;50.848;6.776;2023-04-03T03:47:11;101772.78;;;7.03;62.88
72548;BME280;60570;50.848;6.776;2023-04-03T03:48:13;101777.47;;;7.02;62.87
72548;BME280;60570;50.848;6.776;2023-04-03T03:49:13;101771.94;;;7.02;63.17
72548;BME280;60570;50.848;6.776;2023-04-03T03:50:17;101779.41;;;7.02;63.05
72548;BME280;60570;50.848;6.776;2023-04-03T03:51:18;101775.81;;;7.01;62.96
72548;BME280;60570;50.848;6.776;2023-04-03T03:52:20;101775.00;;;7.01;63.39
72548;BME280;60570;50.848;6.776;2023-04-03T03:53:21;101775.00;;;7.01;62.77
72548;BME280;60570;50.848;6.776;2023-04-03T03:54:22;101781.63;;;7.00;62.85
72548;BME280;60570;50.848;6.776;2023-04-03T03:55:23;101780.22;;;7.02;63.32
72548;BME280;60570;50.848;6.776;2023-04-03T03:56:25;101778.84;;;7.00;62.88
72548;BME280;60570;50.848;6.776;2023-04-03T03:57:26;101778.84;;;7.00;62.80
72548;BME280;60570;50.848;6.776;2023-04-03T03:58:29;101778.03;;;6.99;63.27
72548;BME280;60570;50.848;6.776;2023-04-03T03:59:29;101784.38;;;7.00;62.88
72548;BME280;60570;50.848;6.776;2023-04-03T04:00:31;101781.06;;;6.98;63.03
72548;BME280;60570;50.848;6.776;2023-04-03T04:01:32;101784.13;;;6.96;63.08
72548;BME280;60570;50.848;6.776;2023-04-03T04:02:34;101786.03;;;6.96;62.96
72548;BME280;60570;50.848;6.776;2023-04-03T04:03:34;101784.41;;;6.95;62.89
72548;BME280;60570;50.848;6.776;2023-04-03T04:04:36;101780.81;;;6.94;63.10
72548;BME280;60570;50.848;6.776;2023-04-03T04:05:38;101786.03;;;6.96;63.58
72548;BME280;60570;50.848;6.776;2023-04-03T04:06:40;101787.44;;;6.93;63.35
72548;BME280;60570;50.848;6.776;2023-04-03T04:07:40;101785.78;;;6.92;62.82
72548;BME280;60570;50.848;6.776;2023-04-03T04:08:42;101784.16;;;6.91;63.16
72548;BME280;60570;50.848;6.776;2023-04-03T04:09:43;101788.84;;;6.91;63.20
72548;BME280;60570;50.848;6.776;2023-04-03T04:10:45;101788.84;;;6.91;63.18
72548;BME280;60570;50.848;6.776;2023-04-03T04:11:46;101790.75;;;6.90;63.31
72548;BME280;60570;50.848;6.776;2023-04-03T04:12:47;101787.16;;;6.90;63.22
72548;BME280;60570;50.848;6.776;2023-04-03T04:13:49;101783.84;;;6.88;63.22
72548;BME280;60570;50.848;6.776;2023-04-03T04:14:51;101784.69;;;6.88;63.18
72548;BME280;60570;50.848;6.776;2023-04-03T04:15:51;101785.81;;;6.87;62.92
72548;BME280;60570;50.848;6.776;2023-04-03T04:16:53;101780.56;;;6.86;63.38
72548;BME280;60570;50.848;6.776;2023-04-03T04:17:54;101792.16;;;6.83;63.19
72548;BME280;60570;50.848;6.776;2023-04-03T04:18:55;101791.31;;;6.82;63.55
72548;BME280;60570;50.848;6.776;2023-04-03T04:19:56;101788.56;;;6.82;63.41
72548;BME280;60570;50.848;6.776;2023-04-03T04:20:59;101785.25;;;6.80;63.43
72548;BME280;60570;50.848;6.776;2023-04-03T04:22:00;101783.31;;;6.81;63.64
72548;BME280;60570;50.848;6.776;2023-04-03T04:23:02;101788.00;;;6.80;63.47
72548;BME280;60570;50.848;6.776;2023-04-03T04:24:03;101797.13;;;6.81;63.71
72548;BME280;60570;50.848;6.776;2023-04-03T04:25:04;101791.06;;;6.79;63.50
72548;BME280;60570;50.848;6.776;2023-04-03T04:26:05;101796.28;;;6.80;63.48
72548;BME280;60570;50.848;6.776;2023-04-03T04:27:07;101799.06;;;6.80;63.80
72548;BME280;60570;50.848;6.776;2023-04-03T04:28:08;101790.78;;;6.80;63.80
72548;BME280;60570;50.848;6.776;2023-04-03T04:29:09;101791.06;;;6.79;63.24
72548;BME280;60570;50.848;6.776;2023-04-03T04:30:11;101791.06;;;6.79;63.36
72548;BME280;60570;50.848;6.776;2023-04-03T04:31:13;101795.75;;;6.78;63.49
72548;BME280;60570;50.848;6.776;2023-04-03T04:32:14;101793.81;;;6.79;63.22
72548;BME280;60570;50.848;6.776;2023-04-03T04:33:16;101792.19;;;6.78;63.68
72548;BME280;60570;50.848;6.776;2023-04-03T04:34:16;101799.63;;;6.77;63.24
72548;BME280;60570;50.848;6.776;2023-04-03T04:35:18;101797.69;;;6.78;63.51
72548;BME280;60570;50.848;6.776;2023-04-03T04:36:20;101797.16;;;6.76;63.41
72548;BME280;60570;50.848;6.776;2023-04-03T04:37:22;101801.00;;;6.75;63.18
72548;BME280;60570;50.848;6.776;2023-04-03T04:38:22;101794.38;;;6.76;63.25
72548;BME280;60570;50.848;6.776;2023-04-03T04:39:24;101801.84;;;6.75;63.44
72548;BME280;60570;50.848;6.776;2023-04-03T04:40:25;101802.69;;;6.76;63.52
72548;BME280;60570;50.848;6.776;2023-04-03T04:41:26;101805.16;;;6.77;63.54
72548;BME280;60570;50.848;6.776;2023-04-03T04:42:27;101799.91;;;6.76;63.14
72548;BME280;60570;50.848;6.776;2023-04-03T04:43:29;101805.97;;;6.73;63.47
72548;BME280;60570;50.848;6.776;2023-04-03T04:44:30;101807.09;;;6.72;62.97
72548;BME280;60570;50.848;6.776;2023-04-03T04:45:31;101805.97;;;6.73;63.24
72548;BME280;60570;50.848;6.776;2023-04-03T04:46:32;101810.94;;;6.71;63.35
72548;BME280;60570;50.848;6.776;2023-04-03T04:47:34;101818.41;;;6.70;63.64
72548;BME280;60570;50.848;6.776;2023-04-03T04:48:35;101810.13;;;6.70;63.19
72548;BME280;60570;50.848;6.776;2023-04-03T04:49:37;101809.31;;;6.70;63.21
72548;BME280;60570;50.848;6.776;2023-04-03T04:50:38;101814.81;;;6.70;63.58
72548;BME280;60570;50.848;6.776;2023-04-03T04:51:41;101813.72;;;6.71;63.70
72548;BME280;60570;50.848;6.776;2023-04-03T04:52:41;101818.69;;;6.69;63.27
72548;BME280;60570;50.848;6.776;2023-04-03T04:53:43;101821.44;;;6.69;63.39
72548;BME280;60570;50.848;6.776;2023-04-03T04:54:44;101818.69;;;6.69;63.28
72548;BME280;60570;50.848;6.776;2023-04-03T04:55:46;101822.56;;;6.68;62.96
72548;BME280;60570;50.848;6.776;2023-04-03T04:56:46;101817.88;;;6.68;63.58
72548;BME280;60570;50.848;6.776;2023-04-03T04:57:48;101820.09;;;6.66;63.66
72548;BME280;60570;50.848;6.776;2023-04-03T04:58:49;101816.47;;;6.66;63.13
72548;BME280;60570;50.848;6.776;2023-04-03T04:59:51;101823.94;;;6.65;63.25
72548;BME280;60570;50.848;6.776;2023-04-03T05:00:58;101818.69;;;6.64;63.46
72548;BME280;60570;50.848;6.776;2023-04-03T05:02:00;101829.75;;;6.64;63.66
72548;BME280;60570;50.848;6.776;2023-04-03T05:03:00;101826.97;;;6.64;63.29
72548;BME280;60570;50.848;6.776;2023-04-03T05:04:02;101825.84;;;6.65;63.29
72548;BME280;60570;50.848;6.776;2023-04-03T05:05:03;101828.63;;;6.65;63.21
72548;BME280;60570;50.848;6.776;2023-04-03T05:06:05;101822.53;;;6.63;63.17
72548;BME280;60570;50.848;6.776;2023-04-03T05:07:08;101826.13;;;6.63;63.05
72548;BME280;60570;50.848;6.776;2023-04-03T05:08:09;101820.91;;;6.62;63.46
72548;BME280;60570;50.848;6.776;2023-04-03T05:09:10;101820.06;;;6.61;63.15
72548;BME280;60570;50.848;6.776;2023-04-03T05:10:12;101826.72;;;6.60;63.54
72548;BME280;60570;50.848;6.776;2023-04-03T05:11:13;101826.72;;;6.60;63.25
72548;BME280;60570;50.848;6.776;2023-04-03T05:12:16;101828.63;;;6.60;63.67
72548;BME280;60570;50.848;6.776;2023-04-03T05:13:17;101829.72;;;6.59;63.30
72548;BME280;60570;50.848;6.776;2023-04-03T05:14:18;101830.00;;;6.57;63.62
72548;BME280;60570;50.848;6.776;2023-04-03T05:15:19;101830.84;;;6.58;63.09
72548;BME280;60570;50.848;6.776;2023-04-03T05:16:21;101837.47;;;6.57;63.69
72548;BME280;60570;50.848;6.776;2023-04-03T05:17:22;101832.75;;;6.57;63.41
72548;BME280;60570;50.848;6.776;2023-04-03T05:18:23;101840.25;;;6.57;63.60
72548;BME280;60570;50.848;6.776;2023-04-03T05:19:25;101847.69;;;6.56;63.22
72548;BME280;60570;50.848;6.776;2023-04-03T05:20:26;101847.97;;;6.55;63.38
72548;BME280;60570;50.848;6.776;2023-04-03T05:21:27;101843.53;;;6.54;63.59
72548;BME280;60570;50.848;6.776;2023-04-03T05:22:33;101847.13;;;6.54;63.42
72548;BME280;60570;50.848;6.776;2023-04-03T05:23:34;101855.69;;;6.53;63.25
72548;BME280;60570;50.848;6.776;2023-04-03T05:24:36;101851.25;;;6.52;63.04
72548;BME280;60570;50.848;6.776;2023-04-03T05:25:38;101846.84;;;6.51;63.34
72548;BME280;60570;50.848;6.776;2023-04-03T05:26:39;101850.44;;;6.51;63.46
72548;BME280;60570;50.848;6.776;2023-04-03T05:27:41;101850.44;;;6.51;63.50
72548;BME280;60570;50.848;6.776;2023-04-03T05:28:41;101847.13;;;6.49;63.44